Charleston, Vermont
Current Conditions -  °F | °C
As of 6:15 AM on Saturday 25 Oct 2014 (Local Time) from KEFK Reporting Station
Clear Clear  
Wind Chill: 31°   Ceiling: Unl
Heat Index: 31°   Visibility: 10mi
Dew Point: 31°   Wind: 0mph
Humidity: 99%   Direction: NA
Pressure: 29.75"   Gusts: NA
Location:  44.8666°N, 72.0503°W
Report Text: KEFK 251015Z AUTO 00000KT 10SM CLR 00/00 A2975 RMK AO2 T10031004
Loading
Personal Weather Stations






























Interactive Weather Map
Tropical Storm Tracking
New forecast layout! Learn more

10-Day Weather Forecast

Advertisements
Track Severe Weather on mobile